createdAt,value
2022-11-06T00:02:20.281Z,91.51
2022-11-06T00:04:48.890Z,91.34
2022-11-06T00:07:15.482Z,91.10
2022-11-06T00:09:44.802Z,91.38
2022-11-06T00:12:13.196Z,91.43
2022-11-06T00:14:41.058Z,91.26
2022-11-06T00:17:08.929Z,91.40
2022-11-06T00:19:37.242Z,91.28
2022-11-06T00:22:05.554Z,91.41
2022-11-06T00:24:33.317Z,91.39
2022-11-06T00:27:02.201Z,91.34
2022-11-06T00:29:31.803Z,91.06
2022-11-06T00:31:59.345Z,91.40
2022-11-06T00:34:26.961Z,91.43
2022-11-06T00:36:54.598Z,91.50
2022-11-06T00:39:22.260Z,91.60
2022-11-06T00:41:49.885Z,91.80
2022-11-06T00:44:18.804Z,91.66
2022-11-06T00:46:47.031Z,91.61
2022-11-06T00:49:15.731Z,91.60
2022-11-06T00:51:43.393Z,91.61
2022-11-06T00:54:13.015Z,91.55
2022-11-06T00:56:41.885Z,91.66
2022-11-06T00:59:13.856Z,91.59
2022-11-06T01:01:44.008Z,91.97
2022-11-06T01:04:14.122Z,91.89
2022-11-06T01:06:44.871Z,92.07
2022-11-06T01:09:14.363Z,92.05
2022-11-06T01:12:11.923Z,92.02
2022-11-06T01:14:33.906Z,92.18
2022-11-06T01:17:02.864Z,91.95
2022-11-06T01:19:30.515Z,91.93
2022-11-06T01:21:58.104Z,91.95
2022-11-06T01:24:27.811Z,92.05
2022-11-06T01:27:24.883Z,92.04
2022-11-06T01:29:43.739Z,92.36
2022-11-06T01:32:13.188Z,92.15
2022-11-06T01:34:41.797Z,92.40
2022-11-06T01:37:14.302Z,92.16
2022-11-06T01:39:42.929Z,92.38
2022-11-06T01:42:12.047Z,91.99
2022-11-06T01:45:19.699Z,92.07
2022-11-06T01:47:49.789Z,92.45
2022-11-06T01:50:18.790Z,92.42
2022-11-06T01:52:49.660Z,92.62
2022-11-06T01:55:22.836Z,92.42
2022-11-06T01:57:51.410Z,92.22
2022-11-06T02:00:20.847Z,92.25
2022-11-06T02:02:51.176Z,92.44
2022-11-06T02:05:19.546Z,92.03
2022-11-06T02:07:47.167Z,92.19
2022-11-06T02:10:14.718Z,92.13
2022-11-06T02:13:00.827Z,92.09
2022-11-06T02:15:38.123Z,92.07
2022-11-06T02:18:25.020Z,92.19
2022-11-06T02:21:11.821Z,92.04
2022-11-06T02:23:57.055Z,91.80
2022-11-06T02:26:53.850Z,92.03
2022-11-06T02:29:27.905Z,92.03
2022-11-06T02:32:00.325Z,92.60
2022-11-06T02:34:29.486Z,92.79
2022-11-06T02:37:02.276Z,92.45
2022-11-06T02:39:33.582Z,92.73
2022-11-06T02:42:05.878Z,92.70
2022-11-06T02:44:38.209Z,92.70
2022-11-06T02:47:07.675Z,92.64
2022-11-06T02:49:40.391Z,92.75
2022-11-06T02:52:14.975Z,92.95
2022-11-06T02:54:50.370Z,93.48
2022-11-06T02:57:21.854Z,93.48
2022-11-06T02:59:52.695Z,93.48
2022-11-06T03:02:24.364Z,93.90
2022-11-06T03:04:56.057Z,93.63
2022-11-06T03:07:32.796Z,93.95
2022-11-06T03:10:00.733Z,93.79
2022-11-06T03:12:33.823Z,94.18
2022-11-06T03:15:07.909Z,94.17
2022-11-06T03:20:38.804Z,94.26
2022-11-06T03:23:37.441Z,94.85
2022-11-06T03:26:14.159Z,94.92
2022-11-06T03:28:54.828Z,94.95
2022-11-06T03:31:34.963Z,95.09
2022-11-06T03:34:08.793Z,95.24
2022-11-06T03:36:42.004Z,95.30
2022-11-06T03:39:15.006Z,95.13
2022-11-06T03:41:48.060Z,95.25
2022-11-06T03:44:21.061Z,94.98
2022-11-06T03:46:54.665Z,94.98
2022-11-06T03:49:25.863Z,95.38
2022-11-06T03:51:58.109Z,95.55
2022-11-06T03:54:29.305Z,95.82
2022-11-06T03:57:03.918Z,95.91
2022-11-06T03:59:39.678Z,95.58
2022-11-06T04:02:08.898Z,95.68
2022-11-06T04:04:39.485Z,95.67
2022-11-06T04:07:11.837Z,96.14
2022-11-06T04:10:01.147Z,96.28
2022-11-06T04:12:49.789Z,96.34
2022-11-06T04:15:21.425Z,96.04
2022-11-06T04:17:49.092Z,96.13
2022-11-06T04:20:33.629Z,96.60
2022-11-06T04:23:09.453Z,96.43
2022-11-06T04:26:11.432Z,96.46
2022-11-06T04:28:49.293Z,96.71
2022-11-06T04:31:31.887Z,96.73
2022-11-06T04:34:12.830Z,96.98
2022-11-06T04:37:15.851Z,97.16
2022-11-06T04:39:54.759Z,96.93
2022-11-06T04:42:28.909Z,97.21
2022-11-06T04:45:02.398Z,96.91
2022-11-06T04:47:33.815Z,97.13
2022-11-06T04:50:03.677Z,97.40
2022-11-06T04:52:31.316Z,97.60
2022-11-06T04:55:03.825Z,97.89
2022-11-06T04:57:31.451Z,97.69
2022-11-06T04:59:59.435Z,98.02
2022-11-06T05:02:27.014Z,98.07
2022-11-06T05:04:55.974Z,97.82
2022-11-06T05:07:23.829Z,97.98
2022-11-06T05:09:51.486Z,97.67
2022-11-06T05:12:19.927Z,97.21
2022-11-06T05:14:47.482Z,97.75
2022-11-06T05:17:15.906Z,97.26
2022-11-06T05:19:43.425Z,97.23
2022-11-06T05:22:30.817Z,97.34
2022-11-06T05:25:00.802Z,97.31
2022-11-06T05:27:28.368Z,97.52
2022-11-06T05:29:55.892Z,97.59
2022-11-06T05:32:23.425Z,97.35
2022-11-06T05:34:51.314Z,97.63
2022-11-06T05:37:20.861Z,97.77
2022-11-06T05:39:52.298Z,97.61
2022-11-06T05:42:19.858Z,98.01
2022-11-06T05:44:48.305Z,98.22
2022-11-06T05:47:16.295Z,98.01
2022-11-06T05:49:43.846Z,97.83
2022-11-06T05:52:11.842Z,98.01
2022-11-06T05:54:40.745Z,98.20
2022-11-06T05:57:08.787Z,98.32
2022-11-06T05:59:37.839Z,98.44
2022-11-06T06:02:05.455Z,98.15
2022-11-06T06:04:33.082Z,98.32
2022-11-06T06:07:00.725Z,98.15
2022-11-06T06:09:28.411Z,98.84
2022-11-06T06:11:57.336Z,98.91
2022-11-06T06:14:25.217Z,98.57
2022-11-06T06:16:54.317Z,98.73
2022-11-06T06:19:23.302Z,99.06
2022-11-06T06:21:50.881Z,98.98
2022-11-06T06:24:18.586Z,99.25
2022-11-06T06:26:46.857Z,98.96
2022-11-06T06:29:16.833Z,99.23
2022-11-06T06:31:45.902Z,99.09
2022-11-06T06:34:13.804Z,99.07
2022-11-06T06:36:41.380Z,98.99
2022-11-06T06:39:09.301Z,99.01
2022-11-06T06:41:37.099Z,99.44
2022-11-06T06:44:04.918Z,99.15
2022-11-06T06:46:33.851Z,99.67
2022-11-06T06:49:02.045Z,99.88
2022-11-06T06:51:34.226Z,99.74
2022-11-06T06:54:01.777Z,99.91
2022-11-06T06:56:29.330Z,99.51
2022-11-06T06:58:57.821Z,99.91
2022-11-06T07:01:27.517Z,99.70
2022-11-06T07:04:02.795Z,99.61
2022-11-06T07:06:58.419Z,99.92
2022-11-06T07:09:26.392Z,99.88
2022-11-06T07:11:53.938Z,99.83
2022-11-06T07:14:21.427Z,100.00
2022-11-06T07:16:53.601Z,100.00
2022-11-06T07:19:23.031Z,100.00
2022-11-06T07:21:52.300Z,99.96
2022-11-06T07:24:21.023Z,100.00
2022-11-06T07:26:50.222Z,100.00
2022-11-06T07:29:18.840Z,100.00
2022-11-06T07:31:46.898Z,99.76
2022-11-06T07:34:19.192Z,100.00
2022-11-06T07:36:48.146Z,100.00
2022-11-06T07:39:16.335Z,99.77
2022-11-06T07:44:38.407Z,99.75
2022-11-06T07:47:06.066Z,99.58
2022-11-06T07:49:33.630Z,99.25
2022-11-06T07:54:55.987Z,98.43
2022-11-06T07:57:23.702Z,98.16
2022-11-06T07:59:51.518Z,98.27
2022-11-06T08:02:19.867Z,98.10
2022-11-06T08:04:47.828Z,97.92
2022-11-06T08:07:22.797Z,97.59
2022-11-06T08:09:52.336Z,97.02
2022-11-06T08:12:19.872Z,96.51
2022-11-06T08:14:48.337Z,96.22
2022-11-06T08:17:17.849Z,95.91
2022-11-06T08:19:45.425Z,95.55
2022-11-06T08:22:12.986Z,95.36
2022-11-06T08:24:41.901Z,95.45
2022-11-06T08:27:09.499Z,95.55
2022-11-06T08:29:41.286Z,95.32
2022-11-06T08:32:09.523Z,95.42
2022-11-06T08:34:37.203Z,95.08
2022-11-06T08:37:04.772Z,94.65
2022-11-06T08:39:36.335Z,94.68
2022-11-06T08:42:07.452Z,94.34
2022-11-06T08:44:36.837Z,94.34
2022-11-06T08:47:04.493Z,94.76
2022-11-06T08:49:31.984Z,93.99
2022-11-06T08:51:59.820Z,93.34
2022-11-06T08:54:27.470Z,92.68
2022-11-06T08:56:57.803Z,93.12
2022-11-06T08:59:26.677Z,93.05
2022-11-06T09:01:56.324Z,93.00
2022-11-06T09:04:25.234Z,92.12
2022-11-06T09:06:53.167Z,91.89
2022-11-06T09:09:21.288Z,91.99
2022-11-06T09:11:49.849Z,91.79
2022-11-06T09:14:18.370Z,90.95
2022-11-06T09:16:47.354Z,91.42
2022-11-06T09:19:14.869Z,90.59
2022-11-06T09:25:02.463Z,90.00
2022-11-06T09:27:31.251Z,89.56
2022-11-06T09:30:00.843Z,89.93
2022-11-06T09:32:29.759Z,90.06
2022-11-06T09:34:57.285Z,89.78
2022-11-06T09:37:25.063Z,89.73
2022-11-06T09:39:52.620Z,88.55
2022-11-06T09:42:31.096Z,87.76
2022-11-06T09:45:08.117Z,87.56
2022-11-06T09:47:41.443Z,87.88
2022-11-06T09:50:18.908Z,87.01
2022-11-06T09:52:51.310Z,86.60
2022-11-06T09:55:22.886Z,85.53
2022-11-06T09:57:56.021Z,85.68
2022-11-06T10:00:24.995Z,85.66
2022-11-06T10:02:58.565Z,85.06
2022-11-06T10:05:28.415Z,84.94
2022-11-06T10:07:59.032Z,84.60
2022-11-06T10:10:31.839Z,82.91
2022-11-06T10:13:23.260Z,82.33
2022-11-06T10:16:00.920Z,83.22
2022-11-06T10:18:44.429Z,82.37
2022-11-06T10:21:23.818Z,81.75
2022-11-06T10:23:57.679Z,81.72
2022-11-06T10:26:36.340Z,82.80
2022-11-06T10:29:29.065Z,82.83
2022-11-06T10:32:11.988Z,83.33
2022-11-06T10:34:44.401Z,82.80
2022-11-06T10:37:17.536Z,82.83
2022-11-06T10:39:49.837Z,83.14
2022-11-06T10:42:21.857Z,82.23
2022-11-06T10:44:54.941Z,81.29
2022-11-06T10:47:24.760Z,81.41
2022-11-06T10:49:56.783Z,80.33
2022-11-06T10:52:49.874Z,80.69
2022-11-06T10:55:45.395Z,81.49
2022-11-06T10:58:17.987Z,80.91
2022-11-06T11:00:45.741Z,80.77
2022-11-06T11:03:22.904Z,81.51
2022-11-06T11:05:51.842Z,80.35
2022-11-06T11:08:41.829Z,80.62
2022-11-06T11:11:26.564Z,80.14
2022-11-06T11:14:16.469Z,80.04
2022-11-06T11:16:46.953Z,80.35
2022-11-06T11:19:23.257Z,80.41
2022-11-06T11:21:57.608Z,80.61
2022-11-06T11:24:26.139Z,80.81
2022-11-06T11:26:56.488Z,81.02
2022-11-06T11:29:27.783Z,80.55
2022-11-06T11:31:58.652Z,79.88
2022-11-06T11:34:29.121Z,79.25
2022-11-06T11:37:01.103Z,79.39
2022-11-06T11:39:32.783Z,77.48
2022-11-06T11:42:27.004Z,77.25
2022-11-06T11:45:13.431Z,77.12
2022-11-06T11:47:42.979Z,77.21
2022-11-06T11:50:28.585Z,78.02
2022-11-06T11:53:04.365Z,78.20
2022-11-06T11:55:41.744Z,76.95
2022-11-06T11:58:19.875Z,76.29
2022-11-06T12:00:56.831Z,76.34
2022-11-06T12:03:29.119Z,76.40
2022-11-06T12:06:07.799Z,74.33
2022-11-06T12:08:40.551Z,73.88
2022-11-06T12:11:08.664Z,73.31
2022-11-06T12:13:36.985Z,73.48
2022-11-06T12:16:09.532Z,72.16
2022-11-06T12:18:41.943Z,72.22
2022-11-06T12:21:16.532Z,72.54
2022-11-06T12:23:51.747Z,73.15
2022-11-06T12:26:27.868Z,72.57
2022-11-06T12:29:04.952Z,71.72
2022-11-06T12:31:39.807Z,71.68
2022-11-06T12:34:17.649Z,71.75
2022-11-06T12:36:59.818Z,71.25
2022-11-06T12:39:34.778Z,72.15
2022-11-06T12:42:04.808Z,72.16
2022-11-06T12:44:32.475Z,72.27
2022-11-06T12:47:08.908Z,71.55
2022-11-06T12:50:02.920Z,71.40
2022-11-06T12:52:45.682Z,71.38
2022-11-06T12:55:24.905Z,70.06
2022-11-06T12:58:16.695Z,69.38
2022-11-06T13:00:59.004Z,69.55
2022-11-06T13:03:43.041Z,69.72
2022-11-06T13:06:16.163Z,69.83
2022-11-06T13:08:52.863Z,67.95
2022-11-06T13:11:34.479Z,66.78
2022-11-06T13:14:12.011Z,67.53
2022-11-06T13:16:46.395Z,67.80
2022-11-06T13:19:23.144Z,67.32
2022-11-06T13:22:15.829Z,66.22
2022-11-06T13:24:50.139Z,65.67
2022-11-06T13:27:27.272Z,66.67
2022-11-06T13:29:58.440Z,66.88
2022-11-06T13:32:28.524Z,67.04
2022-11-06T13:34:57.905Z,67.19
2022-11-06T13:37:39.272Z,67.03
2022-11-06T13:40:19.451Z,67.41
2022-11-06T13:42:52.502Z,68.10
2022-11-06T13:45:21.907Z,68.84
2022-11-06T13:48:04.653Z,69.51
2022-11-06T13:50:38.428Z,70.44
2022-11-06T13:53:15.849Z,70.93
2022-11-06T13:55:57.995Z,70.94
2022-11-06T13:58:43.792Z,70.77
2022-11-06T14:01:27.048Z,69.00
2022-11-06T14:04:30.845Z,68.74
2022-11-06T14:07:02.839Z,67.83
2022-11-06T14:09:35.115Z,66.15
2022-11-06T14:12:08.900Z,65.97
2022-11-06T14:14:40.750Z,65.08
2022-11-06T14:17:20.710Z,65.72
2022-11-06T14:20:04.258Z,65.96
2022-11-06T14:22:33.688Z,65.44
2022-11-06T14:25:02.497Z,65.28
2022-11-06T14:28:05.874Z,65.11
2022-11-06T14:31:11.623Z,65.31
2022-11-06T14:34:02.624Z,64.60
2022-11-06T14:36:34.377Z,65.35
2022-11-06T14:39:03.704Z,66.36
2022-11-06T14:41:54.950Z,66.56
2022-11-06T14:44:27.399Z,67.07
2022-11-06T14:48:09.629Z,67.79
2022-11-06T14:51:30.933Z,67.95
2022-11-06T14:54:03.197Z,68.40
2022-11-06T14:56:32.119Z,68.61
2022-11-06T14:59:09.412Z,68.96
2022-11-06T15:01:38.897Z,69.60
2022-11-06T15:04:15.679Z,69.24
2022-11-06T15:06:47.945Z,69.55
2022-11-06T15:09:47.198Z,69.40
2022-11-06T15:12:16.961Z,68.96
2022-11-06T15:15:00.931Z,69.13
2022-11-06T15:17:33.141Z,69.69
2022-11-06T15:20:21.909Z,69.91
2022-11-06T15:23:05.907Z,70.02
2022-11-06T15:25:35.711Z,69.80
2022-11-06T15:28:09.138Z,70.63
2022-11-06T15:30:46.125Z,71.02
2022-11-06T15:33:18.375Z,70.65
2022-11-06T15:35:49.512Z,71.27
2022-11-06T15:38:20.994Z,71.17
2022-11-06T15:40:54.874Z,71.43
2022-11-06T15:43:29.902Z,71.12
2022-11-06T15:46:07.527Z,71.25
2022-11-06T15:48:35.949Z,70.69
2022-11-06T15:51:05.281Z,71.03
2022-11-06T15:53:40.870Z,71.06
2022-11-06T15:56:10.562Z,70.83
2022-11-06T15:58:39.656Z,70.66
2022-11-06T16:01:08.598Z,71.01
2022-11-06T16:03:45.828Z,71.14
2022-11-06T16:06:13.676Z,70.86
2022-11-06T16:08:42.415Z,71.09
2022-11-06T16:11:14.747Z,71.55
2022-11-06T16:13:44.906Z,71.37
2022-11-06T16:16:36.356Z,71.71
2022-11-06T16:19:06.274Z,71.73
2022-11-06T16:21:36.643Z,71.63
2022-11-06T16:24:12.305Z,71.57
2022-11-06T16:26:46.711Z,71.56
2022-11-06T16:29:21.922Z,71.88
2022-11-06T16:31:58.928Z,71.59
2022-11-06T16:34:42.861Z,71.62
2022-11-06T16:37:41.224Z,72.02
2022-11-06T16:40:48.646Z,71.90
2022-11-06T16:43:20.128Z,72.88
2022-11-06T16:45:56.293Z,74.09
2022-11-06T16:48:31.902Z,74.66
2022-11-06T16:51:01.358Z,75.03
2022-11-06T16:53:31.951Z,75.13
2022-11-06T16:56:02.369Z,75.15
2022-11-06T16:58:34.276Z,74.95
2022-11-06T17:01:04.566Z,73.99
2022-11-06T17:03:39.987Z,74.49
2022-11-06T17:06:08.189Z,74.35
2022-11-06T17:08:37.688Z,74.00
2022-11-06T17:11:21.803Z,74.59
2022-11-06T17:13:51.845Z,74.53
2022-11-06T17:16:21.563Z,75.04
2022-11-06T17:18:49.405Z,75.09
2022-11-06T17:21:18.809Z,75.23
2022-11-06T17:23:47.366Z,75.70
2022-11-06T17:26:19.633Z,76.33
2022-11-06T17:28:47.364Z,76.70
2022-11-06T17:31:18.184Z,76.09
2022-11-06T17:33:46.023Z,75.50
2022-11-06T17:36:19.878Z,75.71
2022-11-06T17:38:48.174Z,76.32
2022-11-06T17:41:29.461Z,76.34
2022-11-06T17:43:57.656Z,76.73
2022-11-06T17:46:28.688Z,76.78
2022-11-06T17:48:56.769Z,76.88
2022-11-06T17:51:41.218Z,76.75
2022-11-06T17:54:09.165Z,76.79
2022-11-06T17:56:38.235Z,76.97
2022-11-06T17:59:06.708Z,76.73
2022-11-06T18:01:35.845Z,76.50
2022-11-06T18:04:03.586Z,75.67
2022-11-06T18:06:31.170Z,75.94
2022-11-06T18:08:59.964Z,75.85
2022-11-06T18:11:30.597Z,76.17
2022-11-06T18:13:58.487Z,76.03
2022-11-06T18:16:28.387Z,76.14
2022-11-06T18:18:58.029Z,76.08
2022-11-06T18:21:26.396Z,75.25
2022-11-06T18:23:54.096Z,75.07
2022-11-06T18:26:22.292Z,74.94
2022-11-06T18:28:50.119Z,74.91
2022-11-06T18:31:18.519Z,74.90
2022-11-06T18:33:46.625Z,73.69
2022-11-06T18:36:16.908Z,73.84
2022-11-06T18:38:45.004Z,73.99
2022-11-06T18:41:14.931Z,73.80
2022-11-06T18:43:42.845Z,73.28
2022-11-06T18:46:12.992Z,73.33
2022-11-06T18:48:41.209Z,73.18
2022-11-06T18:51:10.147Z,73.16
2022-11-06T18:53:40.162Z,72.77
2022-11-06T18:56:09.667Z,72.88
2022-11-06T18:58:37.710Z,73.40
2022-11-06T19:01:06.677Z,72.94
2022-11-06T19:03:35.027Z,72.77
2022-11-06T19:06:03.816Z,72.50
2022-11-06T19:08:31.544Z,72.55
2022-11-06T19:11:05.100Z,72.06
2022-11-06T19:13:32.664Z,72.49
2022-11-06T19:16:00.539Z,72.08
2022-11-06T19:18:29.158Z,72.59
2022-11-06T19:20:57.840Z,72.50
2022-11-06T19:23:26.866Z,71.88
2022-11-06T19:26:04.541Z,71.77
2022-11-06T19:28:44.520Z,72.12
2022-11-06T19:31:13.465Z,71.25
2022-11-06T19:33:41.094Z,71.06
2022-11-06T19:36:09.382Z,70.93
2022-11-06T19:38:40.952Z,71.45
2022-11-06T19:41:08.542Z,71.25
2022-11-06T19:43:38.051Z,71.77
2022-11-06T19:46:08.523Z,71.77
2022-11-06T19:48:36.805Z,71.84
2022-11-06T19:51:04.798Z,71.73
2022-11-06T19:53:32.396Z,71.74
2022-11-06T19:56:01.549Z,71.82
2022-11-06T19:58:29.055Z,72.03
2022-11-06T20:00:56.840Z,72.33
2022-11-06T20:03:26.725Z,71.99
2022-11-06T20:05:55.303Z,71.90
2022-11-06T20:08:24.166Z,71.81
2022-11-06T20:10:52.385Z,72.16
2022-11-06T20:13:21.000Z,71.85
2022-11-06T20:15:48.592Z,71.85
2022-11-06T20:18:16.214Z,72.08
2022-11-06T20:20:46.844Z,71.75
2022-11-06T20:23:16.541Z,72.49
2022-11-06T20:25:44.244Z,72.66
2022-11-06T20:28:11.841Z,72.37
2022-11-06T20:30:39.337Z,72.16
2022-11-06T20:33:07.067Z,72.13
2022-11-06T20:35:36.232Z,72.58
2022-11-06T20:38:05.349Z,73.01
2022-11-06T20:40:34.593Z,73.45
2022-11-06T20:43:03.325Z,73.39
2022-11-06T20:45:36.873Z,73.71
2022-11-06T20:48:05.926Z,73.79
2022-11-06T20:50:34.614Z,74.08
2022-11-06T20:53:02.410Z,73.93
2022-11-06T20:55:31.783Z,74.05
2022-11-06T20:57:59.360Z,73.63
2022-11-06T21:00:26.990Z,73.60
2022-11-06T21:03:01.564Z,73.65
2022-11-06T21:05:30.319Z,73.99
2022-11-06T21:07:58.213Z,73.81
2022-11-06T21:10:25.885Z,74.29
2022-11-06T21:12:56.443Z,74.67
2022-11-06T21:15:24.473Z,75.12
2022-11-06T21:17:52.200Z,75.30
2022-11-06T21:20:22.971Z,75.79
2022-11-06T21:22:50.904Z,75.68
2022-11-06T21:25:21.901Z,76.28
2022-11-06T21:27:49.455Z,76.60
2022-11-06T21:30:18.906Z,77.04
2022-11-06T21:32:46.955Z,77.44
2022-11-06T21:35:15.101Z,77.67
2022-11-06T21:37:42.680Z,77.62
2022-11-06T21:40:17.055Z,78.14
2022-11-06T21:42:45.140Z,78.34
2022-11-06T21:45:14.995Z,78.73
2022-11-06T21:47:44.061Z,79.09
2022-11-06T21:50:11.802Z,79.16
2022-11-06T21:53:00.978Z,79.25
2022-11-06T21:55:51.273Z,78.92
2022-11-06T21:58:21.255Z,78.55
2022-11-06T22:00:50.872Z,79.33
2022-11-06T22:03:20.144Z,78.94
2022-11-06T22:05:49.726Z,79.33
2022-11-06T22:08:17.483Z,79.93
2022-11-06T22:10:45.184Z,79.09
2022-11-06T22:13:12.942Z,79.86
2022-11-06T22:15:40.879Z,79.89
2022-11-06T22:18:09.361Z,80.08
2022-11-06T22:20:39.896Z,80.32
2022-11-06T22:23:07.523Z,79.97
2022-11-06T22:25:35.943Z,80.47
2022-11-06T22:28:03.526Z,80.74
2022-11-06T22:30:31.053Z,80.75
2022-11-06T22:33:01.888Z,80.68
2022-11-06T22:35:29.602Z,81.08
2022-11-06T22:37:58.468Z,81.49
2022-11-06T22:40:26.898Z,81.54
2022-11-06T22:42:54.432Z,81.42
2022-11-06T22:45:22.282Z,82.07
2022-11-06T22:47:50.902Z,81.64
2022-11-06T22:50:18.883Z,82.27
2022-11-06T22:52:46.550Z,82.34
2022-11-06T22:55:15.607Z,82.97
2022-11-06T22:57:43.103Z,83.37
2022-11-06T23:00:12.097Z,83.00
2022-11-06T23:02:39.846Z,83.02
2022-11-06T23:05:08.573Z,83.21
2022-11-06T23:07:36.145Z,83.50
2022-11-06T23:10:03.810Z,83.91
2022-11-06T23:12:32.827Z,84.13
2022-11-06T23:15:00.467Z,84.55
2022-11-06T23:17:28.693Z,84.52
2022-11-06T23:19:56.505Z,84.84
2022-11-06T23:22:39.426Z,84.86
2022-11-06T23:25:09.735Z,84.65
2022-11-06T23:27:39.293Z,84.90
2022-11-06T23:30:10.686Z,84.76
2022-11-06T23:32:39.773Z,85.37
2022-11-06T23:35:13.314Z,85.06
2022-11-06T23:37:43.509Z,85.02
2022-11-06T23:40:12.665Z,84.68
2022-11-06T23:42:43.150Z,84.72
2022-11-06T23:45:29.591Z,85.17
2022-11-06T23:47:57.271Z,84.97
2022-11-06T23:50:24.795Z,85.32
2022-11-06T23:52:52.422Z,85.33
2022-11-06T23:55:20.331Z,85.35
2022-11-06T23:57:49.238Z,85.86
